sensor_id;sensor_type;location;lat;lon;timestamp;P1;durP1;ratioP1;P2;durP2;ratioP2
12587;SDS011;6359;51.450;7.346;2023-04-01T00:01:59;2.22;;;1.00;;
12587;SDS011;6359;51.450;7.346;2023-04-01T00:04:28;0.98;;;0.68;;
12587;SDS011;6359;51.450;7.346;2023-04-01T00:06:55;7.25;;;1.33;;
12587;SDS011;6359;51.450;7.346;2023-04-01T00:09:22;2.47;;;1.10;;
12587;SDS011;6359;51.450;7.346;2023-04-01T00:11:49;1.65;;;1.00;;
12587;SDS011;6359;51.450;7.346;2023-04-01T00:14:16;2.83;;;1.00;;
12587;SDS011;6359;51.450;7.346;2023-04-01T00:16:43;2.03;;;1.05;;
12587;SDS011;6359;51.450;7.346;2023-04-01T00:19:10;1.15;;;0.75;;
12587;SDS011;6359;51.450;7.346;2023-04-01T00:21:39;1.02;;;0.77;;
12587;SDS011;6359;51.450;7.346;2023-04-01T00:24:06;2.42;;;0.95;;
12587;SDS011;6359;51.450;7.346;2023-04-01T00:26:33;4.50;;;0.90;;
12587;SDS011;6359;51.450;7.346;2023-04-01T00:29:00;3.40;;;1.10;;
12587;SDS011;6359;51.450;7.346;2023-04-01T00:31:27;6.47;;;1.38;;
12587;SDS011;6359;51.450;7.346;2023-04-01T00:33:55;1.92;;;1.20;;
12587;SDS011;6359;51.450;7.346;2023-04-01T00:36:22;5.88;;;1.33;;
12587;SDS011;6359;51.450;7.346;2023-04-01T00:38:51;3.63;;;1.38;;
12587;SDS011;6359;51.450;7.346;2023-04-01T00:41:19;2.47;;;1.40;;
12587;SDS011;6359;51.450;7.346;2023-04-01T00:43:47;2.88;;;1.38;;
12587;SDS011;6359;51.450;7.346;2023-04-01T00:46:16;4.50;;;1.20;;
12587;SDS011;6359;51.450;7.346;2023-04-01T00:48:44;2.47;;;1.38;;
12587;SDS011;6359;51.450;7.346;2023-04-01T00:51:16;2.75;;;0.98;;
12587;SDS011;6359;51.450;7.346;2023-04-01T00:53:50;1.85;;;0.80;;
12587;SDS011;6359;51.450;7.346;2023-04-01T00:56:22;1.55;;;1.08;;
12587;SDS011;6359;51.450;7.346;2023-04-01T00:58:54;1.33;;;0.93;;
12587;SDS011;6359;51.450;7.346;2023-04-01T01:01:24;2.28;;;0.90;;
12587;SDS011;6359;51.450;7.346;2023-04-01T01:03:54;2.50;;;0.77;;
12587;SDS011;6359;51.450;7.346;2023-04-01T01:06:23;1.73;;;0.77;;
12587;SDS011;6359;51.450;7.346;2023-04-01T01:09:08;1.15;;;0.95;;
12587;SDS011;6359;51.450;7.346;2023-04-01T01:11:43;0.98;;;0.88;;
12587;SDS011;6359;51.450;7.346;2023-04-01T01:14:20;1.02;;;0.90;;
12587;SDS011;6359;51.450;7.346;2023-04-01T01:16:58;1.00;;;0.85;;
12587;SDS011;6359;51.450;7.346;2023-04-01T01:19:52;4.13;;;1.08;;
12587;SDS011;6359;51.450;7.346;2023-04-01T01:22:35;3.50;;;0.82;;
12587;SDS011;6359;51.450;7.346;2023-04-01T01:25:16;2.53;;;0.73;;
12587;SDS011;6359;51.450;7.346;2023-04-01T01:27:54;2.47;;;1.00;;
12587;SDS011;6359;51.450;7.346;2023-04-01T01:30:37;2.28;;;0.95;;
12587;SDS011;6359;51.450;7.346;2023-04-01T01:36:03;4.75;;;1.40;;
12587;SDS011;6359;51.450;7.346;2023-04-01T01:38:33;1.83;;;1.05;;
12587;SDS011;6359;51.450;7.346;2023-04-01T01:41:02;2.20;;;0.95;;
12587;SDS011;6359;51.450;7.346;2023-04-01T01:43:33;1.27;;;1.10;;
12587;SDS011;6359;51.450;7.346;2023-04-01T01:46:06;1.55;;;0.90;;
12587;SDS011;6359;51.450;7.346;2023-04-01T01:48:37;6.22;;;1.10;;
12587;SDS011;6359;51.450;7.346;2023-04-01T01:51:06;4.63;;;1.00;;
12587;SDS011;6359;51.450;7.346;2023-04-01T01:53:33;3.28;;;1.08;;
12587;SDS011;6359;51.450;7.346;2023-04-01T01:56:01;2.90;;;1.10;;
12587;SDS011;6359;51.450;7.346;2023-04-01T01:58:28;5.90;;;1.30;;
12587;SDS011;6359;51.450;7.346;2023-04-01T02:01:00;1.40;;;0.95;;
12587;SDS011;6359;51.450;7.346;2023-04-01T02:03:31;1.08;;;1.05;;
12587;SDS011;6359;51.450;7.346;2023-04-01T02:06:02;1.10;;;1.00;;
12587;SDS011;6359;51.450;7.346;2023-04-01T02:08:34;1.48;;;1.00;;
12587;SDS011;6359;51.450;7.346;2023-04-01T02:11:06;2.58;;;1.15;;
12587;SDS011;6359;51.450;7.346;2023-04-01T02:13:37;1.85;;;1.00;;
12587;SDS011;6359;51.450;7.346;2023-04-01T02:16:08;2.17;;;1.30;;
12587;SDS011;6359;51.450;7.346;2023-04-01T02:18:39;2.45;;;1.20;;
12587;SDS011;6359;51.450;7.346;2023-04-01T02:21:07;2.53;;;1.23;;
12587;SDS011;6359;51.450;7.346;2023-04-01T02:23:36;2.95;;;1.55;;
12587;SDS011;6359;51.450;7.346;2023-04-01T02:26:05;1.58;;;1.30;;
12587;SDS011;6359;51.450;7.346;2023-04-01T02:28:35;0.70;;;0.70;;
12587;SDS011;6359;51.450;7.346;2023-04-01T02:31:05;2.25;;;0.73;;
12587;SDS011;6359;51.450;7.346;2023-04-01T02:33:33;0.88;;;0.85;;
12587;SDS011;6359;51.450;7.346;2023-04-01T02:36:00;1.85;;;0.80;;
12587;SDS011;6359;51.450;7.346;2023-04-01T02:38:27;0.90;;;0.80;;
12587;SDS011;6359;51.450;7.346;2023-04-01T02:40:58;2.88;;;0.90;;
12587;SDS011;6359;51.450;7.346;2023-04-01T02:43:27;0.68;;;0.50;;
12587;SDS011;6359;51.450;7.346;2023-04-01T02:45:54;0.95;;;0.65;;
12587;SDS011;6359;51.450;7.346;2023-04-01T02:48:21;0.85;;;0.70;;
12587;SDS011;6359;51.450;7.346;2023-04-01T02:50:48;2.28;;;0.73;;
12587;SDS011;6359;51.450;7.346;2023-04-01T02:53:15;0.82;;;0.82;;
12587;SDS011;6359;51.450;7.346;2023-04-01T02:55:43;1.05;;;0.70;;
12587;SDS011;6359;51.450;7.346;2023-04-01T02:58:12;0.73;;;0.70;;
12587;SDS011;6359;51.450;7.346;2023-04-01T03:00:39;1.63;;;0.70;;
12587;SDS011;6359;51.450;7.346;2023-04-01T03:03:06;0.60;;;0.60;;
12587;SDS011;6359;51.450;7.346;2023-04-01T03:05:34;1.17;;;0.85;;
12587;SDS011;6359;51.450;7.346;2023-04-01T03:08:01;0.50;;;0.50;;
12587;SDS011;6359;51.450;7.346;2023-04-01T03:10:28;1.98;;;0.82;;
12587;SDS011;6359;51.450;7.346;2023-04-01T03:12:55;1.98;;;0.80;;
12587;SDS011;6359;51.450;7.346;2023-04-01T03:15:23;1.90;;;0.60;;
12587;SDS011;6359;51.450;7.346;2023-04-01T03:17:51;1.05;;;0.80;;
12587;SDS011;6359;51.450;7.346;2023-04-01T03:20:17;1.42;;;0.63;;
12587;SDS011;6359;51.450;7.346;2023-04-01T03:22:45;1.63;;;0.68;;
12587;SDS011;6359;51.450;7.346;2023-04-01T03:25:12;1.55;;;0.60;;
12587;SDS011;6359;51.450;7.346;2023-04-01T03:27:39;3.03;;;0.60;;
12587;SDS011;6359;51.450;7.346;2023-04-01T03:30:07;0.40;;;0.40;;
12587;SDS011;6359;51.450;7.346;2023-04-01T03:32:36;2.40;;;0.70;;
12587;SDS011;6359;51.450;7.346;2023-04-01T03:35:03;2.92;;;0.90;;
12587;SDS011;6359;51.450;7.346;2023-04-01T03:37:31;1.45;;;0.73;;
12587;SDS011;6359;51.450;7.346;2023-04-01T03:39:58;3.20;;;0.70;;
12587;SDS011;6359;51.450;7.346;2023-04-01T03:42:25;1.60;;;0.82;;
12587;SDS011;6359;51.450;7.346;2023-04-01T03:44:52;1.65;;;1.00;;
12587;SDS011;6359;51.450;7.346;2023-04-01T03:47:19;3.33;;;1.00;;
12587;SDS011;6359;51.450;7.346;2023-04-01T03:49:48;1.13;;;0.80;;
12587;SDS011;6359;51.450;7.346;2023-04-01T03:52:15;1.23;;;1.00;;
12587;SDS011;6359;51.450;7.346;2023-04-01T03:54:42;2.30;;;1.27;;
12587;SDS011;6359;51.450;7.346;2023-04-01T03:57:09;1.45;;;1.13;;
12587;SDS011;6359;51.450;7.346;2023-04-01T03:59:36;2.58;;;1.50;;
12587;SDS011;6359;51.450;7.346;2023-04-01T04:02:03;4.13;;;1.40;;
12587;SDS011;6359;51.450;7.346;2023-04-01T04:04:30;1.77;;;1.40;;
12587;SDS011;6359;51.450;7.346;2023-04-01T04:06:58;2.08;;;1.38;;
12587;SDS011;6359;51.450;7.346;2023-04-01T04:09:25;3.85;;;2.10;;
12587;SDS011;6359;51.450;7.346;2023-04-01T04:11:53;8.48;;;3.70;;
12587;SDS011;6359;51.450;7.346;2023-04-01T04:14:20;5.80;;;3.13;;
12587;SDS011;6359;51.450;7.346;2023-04-01T04:16:47;7.40;;;3.42;;
12587;SDS011;6359;51.450;7.346;2023-04-01T04:19:14;9.00;;;3.10;;
12587;SDS011;6359;51.450;7.346;2023-04-01T04:21:41;4.03;;;2.35;;
12587;SDS011;6359;51.450;7.346;2023-04-01T04:24:10;6.53;;;2.30;;
12587;SDS011;6359;51.450;7.346;2023-04-01T04:26:37;5.10;;;1.60;;
12587;SDS011;6359;51.450;7.346;2023-04-01T04:29:04;2.33;;;1.67;;
12587;SDS011;6359;51.450;7.346;2023-04-01T04:31:31;2.55;;;1.60;;
12587;SDS011;6359;51.450;7.346;2023-04-01T04:33:58;3.45;;;1.70;;
12587;SDS011;6359;51.450;7.346;2023-04-01T04:36:27;2.67;;;1.50;;
12587;SDS011;6359;51.450;7.346;2023-04-01T04:38:54;5.88;;;1.92;;
12587;SDS011;6359;51.450;7.346;2023-04-01T04:41:22;1.48;;;1.30;;
12587;SDS011;6359;51.450;7.346;2023-04-01T04:43:51;1.30;;;1.20;;
12587;SDS011;6359;51.450;7.346;2023-04-01T04:46:19;3.35;;;1.55;;
12587;SDS011;6359;51.450;7.346;2023-04-01T04:48:46;3.38;;;1.67;;
12587;SDS011;6359;51.450;7.346;2023-04-01T04:51:14;3.17;;;2.28;;
12587;SDS011;6359;51.450;7.346;2023-04-01T04:53:41;3.40;;;2.33;;
12587;SDS011;6359;51.450;7.346;2023-04-01T04:56:09;2.80;;;1.90;;
12587;SDS011;6359;51.450;7.346;2023-04-01T04:58:37;2.67;;;1.77;;
12587;SDS011;6359;51.450;7.346;2023-04-01T05:01:06;1.40;;;1.30;;
12587;SDS011;6359;51.450;7.346;2023-04-01T05:03:34;1.63;;;1.10;;
12587;SDS011;6359;51.450;7.346;2023-04-01T05:06:02;2.88;;;1.10;;
12587;SDS011;6359;51.450;7.346;2023-04-01T05:08:29;4.25;;;1.50;;
12587;SDS011;6359;51.450;7.346;2023-04-01T05:10:57;4.55;;;1.88;;
12587;SDS011;6359;51.450;7.346;2023-04-01T05:13:25;4.30;;;1.85;;
12587;SDS011;6359;51.450;7.346;2023-04-01T05:15:53;3.25;;;1.88;;
12587;SDS011;6359;51.450;7.346;2023-04-01T05:18:20;4.53;;;2.03;;
12587;SDS011;6359;51.450;7.346;2023-04-01T05:20:48;4.20;;;2.05;;
12587;SDS011;6359;51.450;7.346;2023-04-01T05:23:15;2.17;;;1.85;;
12587;SDS011;6359;51.450;7.346;2023-04-01T05:25:43;2.53;;;1.80;;
12587;SDS011;6359;51.450;7.346;2023-04-01T05:28:11;2.08;;;1.80;;
12587;SDS011;6359;51.450;7.346;2023-04-01T05:30:39;1.67;;;1.58;;
12587;SDS011;6359;51.450;7.346;2023-04-01T05:33:08;3.22;;;1.52;;
12587;SDS011;6359;51.450;7.346;2023-04-01T05:35:37;1.83;;;1.40;;
12587;SDS011;6359;51.450;7.346;2023-04-01T05:38:04;3.25;;;1.30;;
12587;SDS011;6359;51.450;7.346;2023-04-01T05:40:32;3.25;;;1.70;;
12587;SDS011;6359;51.450;7.346;2023-04-01T05:42:59;3.40;;;1.67;;
12587;SDS011;6359;51.450;7.346;2023-04-01T05:45:26;2.30;;;1.60;;
12587;SDS011;6359;51.450;7.346;2023-04-01T05:47:53;4.57;;;1.75;;
12587;SDS011;6359;51.450;7.346;2023-04-01T05:50:22;1.73;;;1.63;;
12587;SDS011;6359;51.450;7.346;2023-04-01T05:52:49;1.85;;;1.23;;
12587;SDS011;6359;51.450;7.346;2023-04-01T05:55:16;2.25;;;1.52;;
12587;SDS011;6359;51.450;7.346;2023-04-01T05:57:44;2.13;;;1.70;;
12587;SDS011;6359;51.450;7.346;2023-04-01T06:00:12;6.00;;;2.20;;
12587;SDS011;6359;51.450;7.346;2023-04-01T06:02:39;2.78;;;1.60;;
12587;SDS011;6359;51.450;7.346;2023-04-01T06:05:11;2.10;;;1.27;;
12587;SDS011;6359;51.450;7.346;2023-04-01T06:07:43;2.67;;;1.50;;
12587;SDS011;6359;51.450;7.346;2023-04-01T06:10:12;3.88;;;1.55;;
12587;SDS011;6359;51.450;7.346;2023-04-01T06:12:45;3.83;;;1.60;;
12587;SDS011;6359;51.450;7.346;2023-04-01T06:15:23;2.55;;;1.40;;
12587;SDS011;6359;51.450;7.346;2023-04-01T06:18:01;4.63;;;1.50;;
12587;SDS011;6359;51.450;7.346;2023-04-01T06:20:50;3.22;;;1.60;;
12587;SDS011;6359;51.450;7.346;2023-04-01T06:23:30;1.92;;;1.38;;
12587;SDS011;6359;51.450;7.346;2023-04-01T06:26:07;1.40;;;1.25;;
12587;SDS011;6359;51.450;7.346;2023-04-01T06:31:54;2.97;;;1.83;;
12587;SDS011;6359;51.450;7.346;2023-04-01T06:37:43;3.35;;;1.50;;
12587;SDS011;6359;51.450;7.346;2023-04-01T06:40:43;2.10;;;1.58;;
12587;SDS011;6359;51.450;7.346;2023-04-01T06:43:30;3.95;;;2.50;;
12587;SDS011;6359;51.450;7.346;2023-04-01T06:46:09;3.35;;;2.75;;
12587;SDS011;6359;51.450;7.346;2023-04-01T06:48:47;2.83;;;2.10;;
12587;SDS011;6359;51.450;7.346;2023-04-01T06:51:30;4.55;;;2.17;;
12587;SDS011;6359;51.450;7.346;2023-04-01T06:54:07;1.98;;;1.40;;
12587;SDS011;6359;51.450;7.346;2023-04-01T06:56:40;1.30;;;1.20;;
12587;SDS011;6359;51.450;7.346;2023-04-01T06:59:12;1.38;;;1.23;;
12587;SDS011;6359;51.450;7.346;2023-04-01T07:01:42;2.10;;;1.15;;
12587;SDS011;6359;51.450;7.346;2023-04-01T07:04:14;1.05;;;1.02;;
12587;SDS011;6359;51.450;7.346;2023-04-01T07:06:46;1.17;;;1.08;;
12587;SDS011;6359;51.450;7.346;2023-04-01T07:09:18;1.70;;;1.52;;
12587;SDS011;6359;51.450;7.346;2023-04-01T07:11:50;2.55;;;1.42;;
12587;SDS011;6359;51.450;7.346;2023-04-01T07:14:20;3.08;;;1.50;;
12587;SDS011;6359;51.450;7.346;2023-04-01T07:16:51;3.45;;;2.25;;
12587;SDS011;6359;51.450;7.346;2023-04-01T07:19:24;3.65;;;2.00;;
12587;SDS011;6359;51.450;7.346;2023-04-01T07:21:58;3.55;;;1.80;;
12587;SDS011;6359;51.450;7.346;2023-04-01T07:24:32;1.55;;;1.35;;
12587;SDS011;6359;51.450;7.346;2023-04-01T07:27:02;2.55;;;1.50;;
12587;SDS011;6359;51.450;7.346;2023-04-01T07:29:31;1.33;;;1.20;;
12587;SDS011;6359;51.450;7.346;2023-04-01T07:32:07;1.83;;;1.20;;
12587;SDS011;6359;51.450;7.346;2023-04-01T07:34:46;1.85;;;1.58;;
12587;SDS011;6359;51.450;7.346;2023-04-01T07:37:22;6.43;;;2.25;;
12587;SDS011;6359;51.450;7.346;2023-04-01T07:39:56;6.72;;;2.00;;
12587;SDS011;6359;51.450;7.346;2023-04-01T07:42:35;4.30;;;2.40;;
12587;SDS011;6359;51.450;7.346;2023-04-01T07:45:14;2.92;;;2.13;;
12587;SDS011;6359;51.450;7.346;2023-04-01T07:47:54;2.17;;;1.70;;
12587;SDS011;6359;51.450;7.346;2023-04-01T07:50:35;1.50;;;1.40;;
12587;SDS011;6359;51.450;7.346;2023-04-01T07:53:08;4.25;;;1.63;;
12587;SDS011;6359;51.450;7.346;2023-04-01T07:55:42;2.17;;;1.08;;
12587;SDS011;6359;51.450;7.346;2023-04-01T07:58:16;1.10;;;1.00;;
12587;SDS011;6359;51.450;7.346;2023-04-01T08:00:55;1.30;;;1.10;;
12587;SDS011;6359;51.450;7.346;2023-04-01T08:03:37;1.33;;;1.00;;
12587;SDS011;6359;51.450;7.346;2023-04-01T08:06:15;1.10;;;1.10;;
12587;SDS011;6359;51.450;7.346;2023-04-01T08:08:49;1.20;;;1.10;;
12587;SDS011;6359;51.450;7.346;2023-04-01T08:11:29;1.42;;;1.00;;
12587;SDS011;6359;51.450;7.346;2023-04-01T08:14:07;0.90;;;0.90;;
12587;SDS011;6359;51.450;7.346;2023-04-01T08:16:42;0.90;;;0.90;;
12587;SDS011;6359;51.450;7.346;2023-04-01T08:19:20;0.90;;;0.90;;
12587;SDS011;6359;51.450;7.346;2023-04-01T08:21:57;1.23;;;0.95;;
12587;SDS011;6359;51.450;7.346;2023-04-01T08:24:32;0.80;;;0.80;;
12587;SDS011;6359;51.450;7.346;2023-04-01T08:27:03;2.03;;;1.80;;
12587;SDS011;6359;51.450;7.346;2023-04-01T08:29:40;1.00;;;0.80;;
12587;SDS011;6359;51.450;7.346;2023-04-01T08:32:13;0.73;;;0.63;;
12587;SDS011;6359;51.450;7.346;2023-04-01T08:34:45;1.40;;;1.13;;
12587;SDS011;6359;51.450;7.346;2023-04-01T08:37:17;2.85;;;1.13;;
12587;SDS011;6359;51.450;7.346;2023-04-01T08:39:48;1.63;;;0.90;;
12587;SDS011;6359;51.450;7.346;2023-04-01T08:42:27;0.80;;;0.80;;
12587;SDS011;6359;51.450;7.346;2023-04-01T08:45:21;1.00;;;1.00;;
12587;SDS011;6359;51.450;7.346;2023-04-01T08:54:17;1.30;;;1.00;;
12587;SDS011;6359;51.450;7.346;2023-04-01T08:56:59;1.42;;;1.33;;
12587;SDS011;6359;51.450;7.346;2023-04-01T08:59:47;1.30;;;1.20;;
12587;SDS011;6359;51.450;7.346;2023-04-01T09:02:25;6.68;;;1.80;;
12587;SDS011;6359;51.450;7.346;2023-04-01T09:08:19;1.63;;;1.48;;
12587;SDS011;6359;51.450;7.346;2023-04-01T09:11:08;2.58;;;1.40;;
12587;SDS011;6359;51.450;7.346;2023-04-01T09:16:58;1.20;;;1.20;;
12587;SDS011;6359;51.450;7.346;2023-04-01T09:19:56;1.30;;;1.20;;
12587;SDS011;6359;51.450;7.346;2023-04-01T09:22:36;1.40;;;1.30;;
12587;SDS011;6359;51.450;7.346;2023-04-01T09:25:22;1.23;;;1.20;;
12587;SDS011;6359;51.450;7.346;2023-04-01T09:27:57;1.33;;;1.25;;
12587;SDS011;6359;51.450;7.346;2023-04-01T09:30:38;3.50;;;1.42;;
12587;SDS011;6359;51.450;7.346;2023-04-01T09:33:41;1.70;;;1.50;;
12587;SDS011;6359;51.450;7.346;2023-04-01T09:36:26;1.45;;;1.35;;
12587;SDS011;6359;51.450;7.346;2023-04-01T09:39:11;1.58;;;1.48;;
12587;SDS011;6359;51.450;7.346;2023-04-01T09:41:55;1.55;;;1.45;;
12587;SDS011;6359;51.450;7.346;2023-04-01T09:44:33;2.30;;;1.40;;
12587;SDS011;6359;51.450;7.346;2023-04-01T09:47:07;3.35;;;1.80;;
12587;SDS011;6359;51.450;7.346;2023-04-01T09:49:55;3.05;;;1.80;;
12587;SDS011;6359;51.450;7.346;2023-04-01T09:52:43;3.08;;;2.17;;
12587;SDS011;6359;51.450;7.346;2023-04-01T09:55:22;6.13;;;5.05;;
12587;SDS011;6359;51.450;7.346;2023-04-01T09:58:25;3.08;;;2.75;;
12587;SDS011;6359;51.450;7.346;2023-04-01T10:04:26;3.65;;;3.35;;
12587;SDS011;6359;51.450;7.346;2023-04-01T10:07:46;3.58;;;3.25;;
12587;SDS011;6359;51.450;7.346;2023-04-01T10:10:46;4.32;;;3.60;;
12587;SDS011;6359;51.450;7.346;2023-04-01T10:13:41;4.10;;;3.75;;
12587;SDS011;6359;51.450;7.346;2023-04-01T10:22:32;4.15;;;3.70;;
12587;SDS011;6359;51.450;7.346;2023-04-01T10:31:29;4.22;;;3.50;;
12587;SDS011;6359;51.450;7.346;2023-04-01T10:34:26;4.50;;;3.65;;
12587;SDS011;6359;51.450;7.346;2023-04-01T10:37:23;4.93;;;4.22;;
12587;SDS011;6359;51.450;7.346;2023-04-01T10:43:06;4.47;;;4.07;;
12587;SDS011;6359;51.450;7.346;2023-04-01T10:46:16;4.25;;;3.80;;
12587;SDS011;6359;51.450;7.346;2023-04-01T10:52:21;4.22;;;3.83;;
12587;SDS011;6359;51.450;7.346;2023-04-01T10:58:20;3.70;;;3.40;;
12587;SDS011;6359;51.450;7.346;2023-04-01T11:01:30;5.30;;;3.70;;
12587;SDS011;6359;51.450;7.346;2023-04-01T11:13:45;3.30;;;2.75;;
12587;SDS011;6359;51.450;7.346;2023-04-01T11:16:53;3.70;;;3.38;;
12587;SDS011;6359;51.450;7.346;2023-04-01T11:22:56;3.47;;;3.17;;
12587;SDS011;6359;51.450;7.346;2023-04-01T11:25:42;3.33;;;3.03;;
12587;SDS011;6359;51.450;7.346;2023-04-01T11:31:43;4.45;;;2.90;;
12587;SDS011;6359;51.450;7.346;2023-04-01T11:34:20;3.30;;;3.00;;
12587;SDS011;6359;51.450;7.346;2023-04-01T11:37:00;3.00;;;2.80;;
12587;SDS011;6359;51.450;7.346;2023-04-01T11:39:36;3.10;;;2.80;;
12587;SDS011;6359;51.450;7.346;2023-04-01T11:42:14;3.42;;;2.58;;
12587;SDS011;6359;51.450;7.346;2023-04-01T11:44:53;4.22;;;2.58;;
12587;SDS011;6359;51.450;7.346;2023-04-01T11:47:39;2.58;;;2.40;;
12587;SDS011;6359;51.450;7.346;2023-04-01T11:50:21;4.18;;;2.78;;
12587;SDS011;6359;51.450;7.346;2023-04-01T11:52:55;3.55;;;3.20;;
12587;SDS011;6359;51.450;7.346;2023-04-01T11:55:46;3.15;;;2.83;;
12587;SDS011;6359;51.450;7.346;2023-04-01T11:58:36;2.72;;;2.53;;
12587;SDS011;6359;51.450;7.346;2023-04-01T12:04:19;3.60;;;2.22;;
12587;SDS011;6359;51.450;7.346;2023-04-01T12:07:06;2.83;;;2.42;;
12587;SDS011;6359;51.450;7.346;2023-04-01T12:09:47;2.63;;;2.42;;
12587;SDS011;6359;51.450;7.346;2023-04-01T12:12:22;2.67;;;2.47;;
12587;SDS011;6359;51.450;7.346;2023-04-01T12:15:00;3.40;;;2.90;;
12587;SDS011;6359;51.450;7.346;2023-04-01T12:17:42;3.35;;;2.70;;
12587;SDS011;6359;51.450;7.346;2023-04-01T12:20:28;2.63;;;2.25;;
12587;SDS011;6359;51.450;7.346;2023-04-01T12:23:06;2.67;;;2.47;;
12587;SDS011;6359;51.450;7.346;2023-04-01T12:25:53;2.58;;;2.15;;
12587;SDS011;6359;51.450;7.346;2023-04-01T12:28:40;2.60;;;2.40;;
12587;SDS011;6359;51.450;7.346;2023-04-01T12:34:15;2.20;;;2.00;;
12587;SDS011;6359;51.450;7.346;2023-04-01T12:37:06;2.40;;;2.20;;
12587;SDS011;6359;51.450;7.346;2023-04-01T12:39:57;2.25;;;2.13;;
12587;SDS011;6359;51.450;7.346;2023-04-01T12:42:36;2.92;;;2.00;;
12587;SDS011;6359;51.450;7.346;2023-04-01T12:45:18;2.00;;;1.90;;
12587;SDS011;6359;51.450;7.346;2023-04-01T12:48:16;2.50;;;2.30;;
12587;SDS011;6359;51.450;7.346;2023-04-01T12:50:58;2.58;;;2.38;;
12587;SDS011;6359;51.450;7.346;2023-04-01T12:53:59;2.90;;;2.65;;
12587;SDS011;6359;51.450;7.346;2023-04-01T12:56:43;3.33;;;1.95;;
12587;SDS011;6359;51.450;7.346;2023-04-01T12:59:27;1.98;;;1.88;;
12587;SDS011;6359;51.450;7.346;2023-04-01T13:02:13;2.33;;;2.13;;
12587;SDS011;6359;51.450;7.346;2023-04-01T13:04:56;2.63;;;2.42;;
12587;SDS011;6359;51.450;7.346;2023-04-01T13:07:53;2.55;;;1.90;;
12587;SDS011;6359;51.450;7.346;2023-04-01T13:10:37;2.03;;;1.92;;
12587;SDS011;6359;51.450;7.346;2023-04-01T13:13:18;2.25;;;1.75;;
12587;SDS011;6359;51.450;7.346;2023-04-01T13:15:55;2.13;;;2.03;;
12587;SDS011;6359;51.450;7.346;2023-04-01T13:18:29;2.05;;;1.95;;
12587;SDS011;6359;51.450;7.346;2023-04-01T13:21:05;2.50;;;2.30;;
12587;SDS011;6359;51.450;7.346;2023-04-01T13:23:45;2.88;;;2.50;;
12587;SDS011;6359;51.450;7.346;2023-04-01T13:26:23;3.90;;;2.90;;
12587;SDS011;6359;51.450;7.346;2023-04-01T13:28:56;3.40;;;3.10;;
12587;SDS011;6359;51.450;7.346;2023-04-01T13:31:34;4.55;;;3.55;;
12587;SDS011;6359;51.450;7.346;2023-04-01T13:34:13;3.30;;;3.10;;
12587;SDS011;6359;51.450;7.346;2023-04-01T13:36:54;3.10;;;2.90;;
12587;SDS011;6359;51.450;7.346;2023-04-01T13:39:34;3.58;;;3.20;;
12587;SDS011;6359;51.450;7.346;2023-04-01T13:42:12;5.65;;;4.60;;
12587;SDS011;6359;51.450;7.346;2023-04-01T13:44:46;4.60;;;4.20;;
12587;SDS011;6359;51.450;7.346;2023-04-01T13:47:23;4.00;;;3.70;;
12587;SDS011;6359;51.450;7.346;2023-04-01T13:50:16;4.95;;;4.55;;
12587;SDS011;6359;51.450;7.346;2023-04-01T13:53:03;4.97;;;4.55;;
12587;SDS011;6359;51.450;7.346;2023-04-01T13:55:56;4.25;;;3.95;;
12587;SDS011;6359;51.450;7.346;2023-04-01T13:58:45;4.20;;;3.85;;
12587;SDS011;6359;51.450;7.346;2023-04-01T14:01:27;5.05;;;4.10;;
12587;SDS011;6359;51.450;7.346;2023-04-01T14:04:08;4.55;;;4.15;;
12587;SDS011;6359;51.450;7.346;2023-04-01T14:06:58;4.15;;;3.85;;
12587;SDS011;6359;51.450;7.346;2023-04-01T14:09:38;4.40;;;3.80;;
12587;SDS011;6359;51.450;7.346;2023-04-01T14:12:21;3.85;;;3.55;;
12587;SDS011;6359;51.450;7.346;2023-04-01T14:15:03;4.03;;;3.65;;
12587;SDS011;6359;51.450;7.346;2023-04-01T14:17:49;4.35;;;3.58;;
12587;SDS011;6359;51.450;7.346;2023-04-01T14:20:34;3.80;;;3.50;;
12587;SDS011;6359;51.450;7.346;2023-04-01T14:23:13;4.45;;;3.72;;
12587;SDS011;6359;51.450;7.346;2023-04-01T14:28:49;4.35;;;3.25;;
12587;SDS011;6359;51.450;7.346;2023-04-01T14:31:29;3.63;;;3.33;;
12587;SDS011;6359;51.450;7.346;2023-04-01T14:34:05;4.05;;;2.95;;
12587;SDS011;6359;51.450;7.346;2023-04-01T14:36:43;3.85;;;3.25;;
12587;SDS011;6359;51.450;7.346;2023-04-01T14:39:43;7.10;;;3.30;;
12587;SDS011;6359;51.450;7.346;2023-04-01T14:42:36;3.55;;;3.22;;
12587;SDS011;6359;51.450;7.346;2023-04-01T14:48:23;4.53;;;3.05;;
12587;SDS011;6359;51.450;7.346;2023-04-01T14:50:55;3.53;;;3.22;;
12587;SDS011;6359;51.450;7.346;2023-04-01T14:53:30;4.40;;;3.75;;
12587;SDS011;6359;51.450;7.346;2023-04-01T14:56:03;3.58;;;3.28;;
12587;SDS011;6359;51.450;7.346;2023-04-01T14:58:39;3.70;;;3.40;;
12587;SDS011;6359;51.450;7.346;2023-04-01T15:01:24;3.97;;;3.58;;
12587;SDS011;6359;51.450;7.346;2023-04-01T15:04:03;4.15;;;3.75;;
12587;SDS011;6359;51.450;7.346;2023-04-01T15:06:56;3.55;;;3.25;;
12587;SDS011;6359;51.450;7.346;2023-04-01T15:09:32;4.22;;;3.45;;
12587;SDS011;6359;51.450;7.346;2023-04-01T15:12:12;4.60;;;2.90;;
12587;SDS011;6359;51.450;7.346;2023-04-01T15:14:55;3.90;;;3.60;;
12587;SDS011;6359;51.450;7.346;2023-04-01T15:17:41;3.30;;;3.00;;
12587;SDS011;6359;51.450;7.346;2023-04-01T15:20:23;3.40;;;3.13;;
12587;SDS011;6359;51.450;7.346;2023-04-01T15:23:02;3.45;;;3.17;;
12587;SDS011;6359;51.450;7.346;2023-04-01T15:25:42;3.55;;;3.20;;
12587;SDS011;6359;51.450;7.346;2023-04-01T15:28:33;4.07;;;3.67;;
12587;SDS011;6359;51.450;7.346;2023-04-01T15:31:07;5.43;;;4.05;;
12587;SDS011;6359;51.450;7.346;2023-04-01T15:33:48;4.40;;;3.95;;
12587;SDS011;6359;51.450;7.346;2023-04-01T15:36:29;4.22;;;3.83;;
12587;SDS011;6359;51.450;7.346;2023-04-01T15:39:04;5.40;;;4.65;;
12587;SDS011;6359;51.450;7.346;2023-04-01T15:41:42;4.28;;;3.83;;
12587;SDS011;6359;51.450;7.346;2023-04-01T15:44:26;5.00;;;4.50;;
12587;SDS011;6359;51.450;7.346;2023-04-01T15:47:07;5.15;;;4.65;;
12587;SDS011;6359;51.450;7.346;2023-04-01T15:50:12;5.82;;;5.30;;
12587;SDS011;6359;51.450;7.346;2023-04-01T15:53:17;7.45;;;5.35;;
12587;SDS011;6359;51.450;7.346;2023-04-01T15:55:52;5.60;;;4.97;;
12587;SDS011;6359;51.450;7.346;2023-04-01T15:58:36;7.45;;;5.47;;
12587;SDS011;6359;51.450;7.346;2023-04-01T16:01:16;5.57;;;4.90;;
12587;SDS011;6359;51.450;7.346;2023-04-01T16:03:53;6.05;;;5.55;;
12587;SDS011;6359;51.450;7.346;2023-04-01T16:06:36;5.85;;;5.35;;
12587;SDS011;6359;51.450;7.346;2023-04-01T16:12:24;5.80;;;5.20;;
12587;SDS011;6359;51.450;7.346;2023-04-01T16:15:03;6.32;;;5.72;;
12587;SDS011;6359;51.450;7.346;2023-04-01T16:17:46;6.43;;;5.70;;
12587;SDS011;6359;51.450;7.346;2023-04-01T16:20:32;5.85;;;5.18;;
12587;SDS011;6359;51.450;7.346;2023-04-01T16:23:13;6.13;;;5.63;;
12587;SDS011;6359;51.450;7.346;2023-04-01T16:25:49;6.72;;;6.13;;
12587;SDS011;6359;51.450;7.346;2023-04-01T16:28:24;6.55;;;5.95;;
12587;SDS011;6359;51.450;7.346;2023-04-01T16:30:57;6.40;;;5.80;;
12587;SDS011;6359;51.450;7.346;2023-04-01T16:33:30;6.55;;;5.95;;
12587;SDS011;6359;51.450;7.346;2023-04-01T16:36:11;7.18;;;6.25;;
12587;SDS011;6359;51.450;7.346;2023-04-01T16:38:50;7.00;;;6.30;;
12587;SDS011;6359;51.450;7.346;2023-04-01T16:41:26;7.72;;;5.60;;
12587;SDS011;6359;51.450;7.346;2023-04-01T16:43:59;5.45;;;4.80;;
12587;SDS011;6359;51.450;7.346;2023-04-01T16:46:39;5.47;;;4.97;;
12587;SDS011;6359;51.450;7.346;2023-04-01T16:49:24;5.40;;;4.90;;
12587;SDS011;6359;51.450;7.346;2023-04-01T16:51:59;6.00;;;5.30;;
12587;SDS011;6359;51.450;7.346;2023-04-01T16:54:42;4.90;;;4.50;;
12587;SDS011;6359;51.450;7.346;2023-04-01T16:57:17;5.25;;;4.75;;
12587;SDS011;6359;51.450;7.346;2023-04-01T16:59:53;5.40;;;4.90;;
12587;SDS011;6359;51.450;7.346;2023-04-01T17:02:25;4.60;;;4.25;;
12587;SDS011;6359;51.450;7.346;2023-04-01T17:04:58;5.60;;;4.97;;
12587;SDS011;6359;51.450;7.346;2023-04-01T17:07:33;5.20;;;4.70;;
12587;SDS011;6359;51.450;7.346;2023-04-01T17:10:28;4.68;;;4.28;;
12587;SDS011;6359;51.450;7.346;2023-04-01T17:13:09;7.30;;;4.45;;
12587;SDS011;6359;51.450;7.346;2023-04-01T17:16:00;5.60;;;5.00;;